createdAt,value
2023-05-06T00:02:16.149Z,72.11
2023-05-06T00:04:43.432Z,72.09
2023-05-06T00:07:10.733Z,71.79
2023-05-06T00:09:38.011Z,72.14
2023-05-06T00:12:05.724Z,72.46
2023-05-06T00:14:32.876Z,71.82
2023-05-06T00:17:00.159Z,72.10
2023-05-06T00:19:27.613Z,72.47
2023-05-06T00:21:55.978Z,71.88
2023-05-06T00:24:23.270Z,71.99
2023-05-06T00:26:50.462Z,72.14
2023-05-06T00:29:17.743Z,71.67
2023-05-06T00:31:45.524Z,71.77
2023-05-06T00:34:12.767Z,72.76
2023-05-06T00:36:40.045Z,72.18
2023-05-06T00:39:07.256Z,72.41
2023-05-06T00:41:34.287Z,72.21
2023-05-06T00:44:01.403Z,72.54
2023-05-06T00:46:28.578Z,72.95
2023-05-06T00:48:55.834Z,72.82
2023-05-06T00:51:23.568Z,72.69
2023-05-06T00:53:50.842Z,72.90
2023-05-06T00:56:20.689Z,73.11
2023-05-06T00:58:48.561Z,73.02
2023-05-06T01:01:15.891Z,73.31
2023-05-06T01:03:43.194Z,73.13
2023-05-06T01:06:10.772Z,73.11
2023-05-06T01:08:55.350Z,73.43
2023-05-06T01:11:25.959Z,73.37
2023-05-06T01:13:59.572Z,73.36
2023-05-06T01:16:27.005Z,72.76
2023-05-06T01:18:54.282Z,73.06
2023-05-06T01:21:22.207Z,73.52
2023-05-06T01:23:58.281Z,73.49
2023-05-06T01:26:25.587Z,73.36
2023-05-06T01:28:53.375Z,73.86
2023-05-06T01:31:45.686Z,74.04
2023-05-06T01:34:20.358Z,74.19
2023-05-06T01:37:02.963Z,74.34
2023-05-06T01:39:30.968Z,74.28
2023-05-06T01:41:59.380Z,74.39
2023-05-06T01:44:27.930Z,74.79
2023-05-06T01:46:55.210Z,74.83
2023-05-06T01:49:22.773Z,74.53
2023-05-06T01:51:50.512Z,75.18
2023-05-06T01:54:17.884Z,75.08
2023-05-06T01:56:45.702Z,75.55
2023-05-06T01:59:13.003Z,75.42
2023-05-06T02:01:40.198Z,75.02
2023-05-06T02:04:07.872Z,75.39
2023-05-06T02:06:34.953Z,76.01
2023-05-06T02:09:02.092Z,75.43
2023-05-06T02:11:30.675Z,75.64
2023-05-06T02:14:03.228Z,75.90
2023-05-06T02:16:33.164Z,75.57
2023-05-06T02:19:00.900Z,75.54
2023-05-06T02:21:28.339Z,75.60
2023-05-06T02:23:55.852Z,75.82
2023-05-06T02:26:22.872Z,76.45
2023-05-06T02:28:50.078Z,75.55
2023-05-06T02:31:17.122Z,75.99
2023-05-06T02:33:45.268Z,76.55
2023-05-06T02:36:12.310Z,76.09
2023-05-06T02:38:39.388Z,76.16
2023-05-06T02:41:06.370Z,76.16
2023-05-06T02:43:33.567Z,76.79
2023-05-06T02:46:00.661Z,76.85
2023-05-06T02:48:27.697Z,76.46
2023-05-06T02:50:54.821Z,76.13
2023-05-06T02:53:22.180Z,77.07
2023-05-06T02:55:49.295Z,76.83
2023-05-06T02:58:18.921Z,76.95
2023-05-06T03:00:46.137Z,76.80
2023-05-06T03:03:13.135Z,76.27
2023-05-06T03:05:40.084Z,76.47
2023-05-06T03:08:07.221Z,76.89
2023-05-06T03:10:35.683Z,77.43
2023-05-06T03:13:03.008Z,76.73
2023-05-06T03:15:30.320Z,77.07
2023-05-06T03:17:57.318Z,77.35
2023-05-06T03:20:25.163Z,77.07
2023-05-06T03:22:56.050Z,77.41
2023-05-06T03:25:24.417Z,76.93
2023-05-06T03:27:52.490Z,76.94
2023-05-06T03:30:22.294Z,77.00
2023-05-06T03:32:51.667Z,76.98
2023-05-06T03:35:25.977Z,76.83
2023-05-06T03:37:56.650Z,76.67
2023-05-06T03:40:26.336Z,77.04
2023-05-06T03:42:53.959Z,76.48
2023-05-06T03:45:22.649Z,76.47
2023-05-06T03:47:50.253Z,75.97
2023-05-06T03:50:19.505Z,76.25
2023-05-06T03:52:46.589Z,75.81
2023-05-06T03:55:14.596Z,75.54
2023-05-06T03:57:41.854Z,74.72
2023-05-06T04:00:09.638Z,74.10
2023-05-06T04:02:43.892Z,73.69
2023-05-06T04:05:18.448Z,72.75
2023-05-06T04:07:46.290Z,72.18
2023-05-06T04:10:13.526Z,71.60
2023-05-06T04:12:43.440Z,71.07
2023-05-06T04:15:13.039Z,70.11
2023-05-06T04:17:41.168Z,69.56
2023-05-06T04:20:11.591Z,69.01
2023-05-06T04:22:39.939Z,68.37
2023-05-06T04:25:08.691Z,68.31
2023-05-06T04:27:39.168Z,68.11
2023-05-06T04:30:09.044Z,67.61
2023-05-06T04:32:38.781Z,67.19
2023-05-06T04:35:07.698Z,67.49
2023-05-06T04:37:35.596Z,66.98
2023-05-06T04:40:09.372Z,66.36
2023-05-06T04:42:39.626Z,65.82
2023-05-06T04:45:12.345Z,66.41
2023-05-06T04:47:42.767Z,66.46
2023-05-06T04:50:10.526Z,65.94
2023-05-06T04:52:37.758Z,66.15
2023-05-06T04:55:06.040Z,65.59
2023-05-06T04:57:35.496Z,65.08
2023-05-06T05:00:03.714Z,65.00
2023-05-06T05:02:35.274Z,64.29
2023-05-06T05:05:02.883Z,64.98
2023-05-06T05:07:31.961Z,64.44
2023-05-06T05:09:59.503Z,64.18
2023-05-06T05:12:26.500Z,64.47
2023-05-06T05:14:53.774Z,65.17
2023-05-06T05:17:21.343Z,64.89
2023-05-06T05:19:50.201Z,65.13
2023-05-06T05:22:17.907Z,65.31
2023-05-06T05:24:45.101Z,65.25
2023-05-06T05:27:12.260Z,65.24
2023-05-06T05:29:40.248Z,64.96
2023-05-06T05:32:11.017Z,64.48
2023-05-06T05:34:38.764Z,64.71
2023-05-06T05:37:06.233Z,64.25
2023-05-06T05:39:34.161Z,63.83
2023-05-06T05:42:01.340Z,63.36
2023-05-06T05:44:28.980Z,63.12
2023-05-06T05:46:56.434Z,62.52
2023-05-06T05:49:23.721Z,62.49
2023-05-06T05:51:52.985Z,62.06
2023-05-06T05:54:21.372Z,61.24
2023-05-06T05:56:48.506Z,59.82
2023-05-06T05:59:16.309Z,59.03
2023-05-06T06:01:46.040Z,58.67
2023-05-06T06:04:13.774Z,56.47
2023-05-06T06:06:40.833Z,56.73
2023-05-06T06:09:09.599Z,56.96
2023-05-06T06:11:38.420Z,56.85
2023-05-06T06:14:06.629Z,55.94
2023-05-06T06:16:33.867Z,55.50
2023-05-06T06:19:00.967Z,55.64
2023-05-06T06:21:29.191Z,55.23
2023-05-06T06:23:56.187Z,54.47
2023-05-06T06:26:23.209Z,54.26
2023-05-06T06:28:50.125Z,53.28
2023-05-06T06:31:17.382Z,52.24
2023-05-06T06:33:44.695Z,52.81
2023-05-06T06:36:11.795Z,52.96
2023-05-06T06:38:38.863Z,52.44
2023-05-06T06:41:06.069Z,52.16
2023-05-06T06:43:33.062Z,51.24
2023-05-06T06:46:02.228Z,52.22
2023-05-06T06:48:29.385Z,51.20
2023-05-06T06:50:56.480Z,50.89
2023-05-06T06:53:23.493Z,50.90
2023-05-06T06:55:50.627Z,50.46
2023-05-06T06:58:17.773Z,50.04
2023-05-06T07:00:45.123Z,50.42
2023-05-06T07:03:15.557Z,50.36
2023-05-06T07:05:46.982Z,50.87
2023-05-06T07:08:23.814Z,50.47
2023-05-06T07:11:03.663Z,49.91
2023-05-06T07:13:42.126Z,49.80
2023-05-06T07:16:11.585Z,49.21
2023-05-06T07:18:38.855Z,48.53
2023-05-06T07:21:05.750Z,48.27
2023-05-06T07:23:32.924Z,48.40
2023-05-06T07:25:59.937Z,48.90
2023-05-06T07:28:27.071Z,49.25
2023-05-06T07:30:54.250Z,49.71
2023-05-06T07:33:24.058Z,49.91
2023-05-06T07:35:54.246Z,49.74
2023-05-06T07:38:22.787Z,50.29
2023-05-06T07:40:51.356Z,50.02
2023-05-06T07:43:18.329Z,50.13
2023-05-06T07:45:45.320Z,50.82
2023-05-06T07:48:12.358Z,51.33
2023-05-06T07:50:39.657Z,51.15
2023-05-06T07:53:06.694Z,50.51
2023-05-06T07:55:37.600Z,49.50
2023-05-06T07:58:04.520Z,49.72
2023-05-06T08:00:31.570Z,49.78
2023-05-06T08:02:58.587Z,49.56
2023-05-06T08:05:25.722Z,49.64
2023-05-06T08:07:54.071Z,49.41
2023-05-06T08:10:22.459Z,49.96
2023-05-06T08:12:49.593Z,49.67
2023-05-06T08:15:16.952Z,49.48
2023-05-06T08:17:43.937Z,49.23
2023-05-06T08:20:11.475Z,49.75
2023-05-06T08:22:39.501Z,50.12
2023-05-06T08:25:07.138Z,50.27
2023-05-06T08:27:34.237Z,50.00
2023-05-06T08:30:01.294Z,49.86
2023-05-06T08:32:31.084Z,49.63
2023-05-06T08:34:59.853Z,49.58
2023-05-06T08:37:27.057Z,49.12
2023-05-06T08:39:54.084Z,49.43
2023-05-06T08:42:21.386Z,49.14
2023-05-06T08:44:48.467Z,49.02
2023-05-06T08:47:15.500Z,48.54
2023-05-06T08:49:42.581Z,48.65
2023-05-06T08:52:09.744Z,48.23
2023-05-06T08:54:37.166Z,48.26
2023-05-06T08:57:06.162Z,49.08
2023-05-06T08:59:34.326Z,49.23
2023-05-06T09:02:02.194Z,49.09
2023-05-06T09:04:29.669Z,49.06
2023-05-06T09:07:00.376Z,48.59
2023-05-06T09:09:27.489Z,48.95
2023-05-06T09:11:57.632Z,49.72
2023-05-06T09:14:25.090Z,49.09
2023-05-06T09:16:52.827Z,48.28
2023-05-06T09:19:20.863Z,48.83
2023-05-06T09:21:49.760Z,49.01
2023-05-06T09:24:16.903Z,49.33
2023-05-06T09:26:44.961Z,49.79
2023-05-06T09:29:12.020Z,49.50
2023-05-06T09:31:43.395Z,49.48
2023-05-06T09:34:10.661Z,49.09
2023-05-06T09:36:37.862Z,49.43
2023-05-06T09:39:05.437Z,48.95
2023-05-06T09:41:32.483Z,49.48
2023-05-06T09:43:59.530Z,49.51
2023-05-06T09:46:28.110Z,48.88
2023-05-06T09:48:56.535Z,48.45
2023-05-06T09:51:23.618Z,47.66
2023-05-06T09:53:50.955Z,47.98
2023-05-06T09:56:17.953Z,47.66
2023-05-06T09:58:44.919Z,47.43
2023-05-06T10:01:19.174Z,46.90
2023-05-06T10:03:53.393Z,47.50
2023-05-06T10:06:20.622Z,47.48
2023-05-06T10:08:48.070Z,48.50
2023-05-06T10:11:15.063Z,47.68
2023-05-06T10:13:44.485Z,47.08
2023-05-06T10:16:12.731Z,47.35
2023-05-06T10:18:41.001Z,46.47
2023-05-06T10:21:22.033Z,45.88
2023-05-06T10:24:05.273Z,45.43
2023-05-06T10:26:32.307Z,45.57
2023-05-06T10:28:59.359Z,45.83
2023-05-06T10:31:26.965Z,46.70
2023-05-06T10:33:53.941Z,46.16
2023-05-06T10:36:25.735Z,45.64
2023-05-06T10:38:56.688Z,45.40
2023-05-06T10:41:26.142Z,45.54
2023-05-06T10:43:57.199Z,45.80
2023-05-06T10:46:26.380Z,45.37
2023-05-06T10:49:06.389Z,45.09
2023-05-06T10:51:34.233Z,45.24
2023-05-06T10:54:03.171Z,45.45
2023-05-06T10:56:33.955Z,45.15
2023-05-06T10:59:08.551Z,44.06
2023-05-06T11:01:44.879Z,44.15
2023-05-06T11:04:13.212Z,44.81
2023-05-06T11:06:42.880Z,44.17
2023-05-06T11:09:23.150Z,43.52
2023-05-06T11:12:03.999Z,44.40
2023-05-06T11:14:37.842Z,44.25
2023-05-06T11:17:06.473Z,43.23
2023-05-06T11:19:37.386Z,43.49
2023-05-06T11:22:05.948Z,44.11
2023-05-06T11:24:42.911Z,43.46
2023-05-06T11:27:10.705Z,43.56
2023-05-06T11:29:38.058Z,43.13
2023-05-06T11:32:21.242Z,41.05
2023-05-06T11:34:48.468Z,42.29
2023-05-06T11:37:15.490Z,43.04
2023-05-06T11:39:48.421Z,42.60
2023-05-06T11:42:15.921Z,43.22
2023-05-06T11:44:43.111Z,43.75
2023-05-06T11:47:10.276Z,43.12
2023-05-06T11:49:40.926Z,43.21
2023-05-06T11:52:11.703Z,43.16
2023-05-06T11:54:40.230Z,43.27
2023-05-06T11:57:07.503Z,43.40
2023-05-06T11:59:37.505Z,43.68
2023-05-06T12:02:06.274Z,43.52
2023-05-06T12:04:43.928Z,43.33
2023-05-06T12:07:15.079Z,43.51
2023-05-06T12:09:44.711Z,43.24
2023-05-06T12:12:11.824Z,43.70
2023-05-06T12:14:38.965Z,43.91
2023-05-06T12:17:06.133Z,43.84
2023-05-06T12:19:33.497Z,44.32
2023-05-06T12:22:20.067Z,44.18
2023-05-06T12:24:47.845Z,43.49
2023-05-06T12:27:15.404Z,43.42
2023-05-06T12:29:52.900Z,44.08
2023-05-06T12:32:19.983Z,43.02
2023-05-06T12:34:47.016Z,42.98
2023-05-06T12:37:24.470Z,43.05
2023-05-06T12:39:51.496Z,43.73
2023-05-06T12:42:24.518Z,43.80
2023-05-06T12:44:51.657Z,44.02
2023-05-06T12:47:20.489Z,43.70
2023-05-06T12:49:53.851Z,43.00
2023-05-06T12:52:22.291Z,43.80
2023-05-06T12:54:49.639Z,43.45
2023-05-06T12:57:16.691Z,43.59
2023-05-06T12:59:44.232Z,43.68
2023-05-06T13:02:11.351Z,43.51
2023-05-06T13:04:38.595Z,43.31
2023-05-06T13:07:06.112Z,42.98
2023-05-06T13:09:33.287Z,43.04
2023-05-06T13:12:00.297Z,42.25
2023-05-06T13:14:27.393Z,42.42
2023-05-06T13:16:54.410Z,40.03
2023-05-06T13:19:32.530Z,40.34
2023-05-06T13:22:00.957Z,39.97
2023-05-06T13:24:29.306Z,39.81
2023-05-06T13:26:57.434Z,39.41
2023-05-06T13:29:25.145Z,39.31
2023-05-06T13:31:52.604Z,38.75
2023-05-06T13:34:19.923Z,38.82
2023-05-06T13:36:49.441Z,38.73
2023-05-06T13:39:16.680Z,39.55
2023-05-06T13:41:46.387Z,40.41
2023-05-06T13:44:14.058Z,40.54
2023-05-06T13:46:46.085Z,40.59
2023-05-06T13:49:14.519Z,40.19
2023-05-06T13:51:41.532Z,39.29
2023-05-06T13:54:08.725Z,39.76
2023-05-06T13:56:35.881Z,40.11
2023-05-06T13:59:02.976Z,40.11
2023-05-06T14:01:30.125Z,40.06
2023-05-06T14:03:57.256Z,40.25
2023-05-06T14:06:24.452Z,40.03
2023-05-06T14:08:51.561Z,40.27
2023-05-06T14:11:18.605Z,40.35
2023-05-06T14:13:45.621Z,40.82
2023-05-06T14:16:12.855Z,40.54
2023-05-06T14:18:39.956Z,40.98
2023-05-06T14:21:06.943Z,41.34
2023-05-06T14:23:34.114Z,41.05
2023-05-06T14:26:01.289Z,41.11
2023-05-06T14:28:28.355Z,41.13
2023-05-06T14:30:56.440Z,41.17
2023-05-06T14:33:23.634Z,41.00
2023-05-06T14:35:52.774Z,40.95
2023-05-06T14:38:20.160Z,41.28
2023-05-06T14:40:47.081Z,41.23
2023-05-06T14:43:14.132Z,41.90
2023-05-06T14:45:41.133Z,42.32
2023-05-06T14:48:08.389Z,42.40
2023-05-06T14:50:35.517Z,42.49
2023-05-06T14:53:03.933Z,42.49
2023-05-06T14:55:31.359Z,42.72
2023-05-06T14:57:58.416Z,42.64
2023-05-06T15:00:25.642Z,42.69
2023-05-06T15:02:52.907Z,42.86
2023-05-06T15:05:20.340Z,43.00
2023-05-06T15:07:47.575Z,43.39
2023-05-06T15:10:15.131Z,43.67
2023-05-06T15:12:42.087Z,43.02
2023-05-06T15:15:09.720Z,43.09
2023-05-06T15:17:37.648Z,42.48
2023-05-06T15:20:06.750Z,43.25
2023-05-06T15:22:33.996Z,43.34
2023-05-06T15:25:01.663Z,43.30
2023-05-06T15:27:31.993Z,43.08
2023-05-06T15:30:04.141Z,43.60
2023-05-06T15:32:34.108Z,44.11
2023-05-06T15:35:01.251Z,43.60
2023-05-06T15:37:33.846Z,42.91
2023-05-06T15:40:01.277Z,43.31
2023-05-06T15:42:31.607Z,43.75
2023-05-06T15:44:58.876Z,44.19
2023-05-06T15:47:25.895Z,44.64
2023-05-06T15:49:54.990Z,44.93
2023-05-06T15:52:23.205Z,45.01
2023-05-06T15:54:50.930Z,44.82
2023-05-06T15:57:18.142Z,44.91
2023-05-06T15:59:45.539Z,45.06
2023-05-06T16:02:26.785Z,45.67
2023-05-06T16:04:55.058Z,46.11
2023-05-06T16:07:22.422Z,46.44
2023-05-06T16:09:50.191Z,46.40
2023-05-06T16:12:17.173Z,46.53
2023-05-06T16:14:44.459Z,46.16
2023-05-06T16:17:11.691Z,46.55
2023-05-06T16:19:39.085Z,46.60
2023-05-06T16:22:06.194Z,47.20
2023-05-06T16:24:33.141Z,47.47
2023-05-06T16:27:00.434Z,47.97
2023-05-06T16:29:27.535Z,47.61
2023-05-06T16:31:54.634Z,48.02
2023-05-06T16:34:21.889Z,48.48
2023-05-06T16:36:49.264Z,48.86
2023-05-06T16:39:22.444Z,48.98
2023-05-06T16:41:49.460Z,49.52
2023-05-06T16:44:16.471Z,48.79
2023-05-06T16:46:43.683Z,49.23
2023-05-06T16:49:10.763Z,49.31
2023-05-06T16:51:37.888Z,48.95
2023-05-06T16:54:04.881Z,48.66
2023-05-06T16:56:43.834Z,48.74
2023-05-06T16:59:15.737Z,48.88
2023-05-06T17:01:42.825Z,48.86
2023-05-06T17:04:10.352Z,48.90
2023-05-06T17:06:37.501Z,48.45
2023-05-06T17:09:04.678Z,48.54
2023-05-06T17:11:31.921Z,48.69
2023-05-06T17:13:59.002Z,48.85
2023-05-06T17:16:26.326Z,49.48
2023-05-06T17:18:53.464Z,50.25
2023-05-06T17:21:21.416Z,50.37
2023-05-06T17:23:48.682Z,50.40
2023-05-06T17:26:17.835Z,50.73
2023-05-06T17:28:45.275Z,51.31
2023-05-06T17:31:16.158Z,51.44
2023-05-06T17:33:44.532Z,51.77
2023-05-06T17:36:13.064Z,52.26
2023-05-06T17:38:40.145Z,51.98
2023-05-06T17:41:08.007Z,51.69
2023-05-06T17:43:35.063Z,51.95
2023-05-06T17:46:02.474Z,51.61
2023-05-06T17:48:29.753Z,52.20
2023-05-06T17:51:01.349Z,52.68
2023-05-06T17:53:28.819Z,53.17
2023-05-06T17:55:56.085Z,52.92
2023-05-06T17:58:23.409Z,52.81
2023-05-06T18:00:50.715Z,52.85
2023-05-06T18:03:21.130Z,53.29
2023-05-06T18:05:48.243Z,53.43
2023-05-06T18:08:15.484Z,53.33
2023-05-06T18:10:42.427Z,53.82
2023-05-06T18:13:09.528Z,53.66
2023-05-06T18:15:37.951Z,53.96
2023-05-06T18:18:08.036Z,53.79
2023-05-06T18:20:35.107Z,53.94
2023-05-06T18:23:02.116Z,54.02
2023-05-06T18:25:29.264Z,54.73
2023-05-06T18:27:56.514Z,54.13
2023-05-06T18:30:23.717Z,54.49
2023-05-06T18:32:52.260Z,54.45
2023-05-06T18:35:20.528Z,54.34
2023-05-06T18:37:47.672Z,54.68
2023-05-06T18:40:14.833Z,55.42
2023-05-06T18:42:41.824Z,55.58
2023-05-06T18:45:09.753Z,55.34
2023-05-06T18:47:40.328Z,55.24
2023-05-06T18:50:08.579Z,54.97
2023-05-06T18:52:38.922Z,55.34
2023-05-06T18:55:07.494Z,55.43
2023-05-06T18:57:34.585Z,55.23
2023-05-06T19:00:01.900Z,55.25
2023-05-06T19:02:29.873Z,55.35
2023-05-06T19:04:58.329Z,55.51
2023-05-06T19:07:25.417Z,55.92
2023-05-06T19:09:52.453Z,56.12
2023-05-06T19:12:20.199Z,56.37
2023-05-06T19:14:47.215Z,56.81
2023-05-06T19:17:15.966Z,56.97
2023-05-06T19:19:45.821Z,57.08
2023-05-06T19:22:13.786Z,57.50
2023-05-06T19:24:40.777Z,57.56
2023-05-06T19:27:07.874Z,57.57
2023-05-06T19:29:35.202Z,57.90
2023-05-06T19:32:05.027Z,58.33
2023-05-06T19:34:32.124Z,58.43
2023-05-06T19:36:59.137Z,58.65
2023-05-06T19:39:26.474Z,58.69
2023-05-06T19:41:57.743Z,58.70
2023-05-06T19:44:24.714Z,59.08
2023-05-06T19:46:54.714Z,59.64
2023-05-06T19:49:21.704Z,60.07
2023-05-06T19:51:48.858Z,59.96
2023-05-06T19:54:15.862Z,60.08
2023-05-06T19:56:43.689Z,60.70
2023-05-06T19:59:10.799Z,60.67
2023-05-06T20:01:38.890Z,60.86
2023-05-06T20:04:06.366Z,60.54
2023-05-06T20:06:33.499Z,61.14
2023-05-06T20:09:00.972Z,61.22
2023-05-06T20:11:28.049Z,61.68
2023-05-06T20:13:55.040Z,61.94
2023-05-06T20:16:22.570Z,62.41
2023-05-06T20:18:51.777Z,62.93
2023-05-06T20:21:18.793Z,63.09
2023-05-06T20:23:45.843Z,63.10
2023-05-06T20:26:13.014Z,63.41
2023-05-06T20:28:40.093Z,64.30
2023-05-06T20:31:07.246Z,64.22
2023-05-06T20:33:34.254Z,64.63
2023-05-06T20:36:01.597Z,64.81
2023-05-06T20:38:30.854Z,65.17
2023-05-06T20:40:58.976Z,65.17
2023-05-06T20:43:26.107Z,65.33
2023-05-06T20:45:53.144Z,65.72
2023-05-06T20:48:20.254Z,66.40
2023-05-06T20:50:47.511Z,67.06
2023-05-06T20:53:14.639Z,67.00
2023-05-06T20:55:41.803Z,67.04
2023-05-06T20:58:08.911Z,67.07
2023-05-06T21:00:35.932Z,67.77
2023-05-06T21:03:03.082Z,68.01
2023-05-06T21:05:30.135Z,67.63
2023-05-06T21:07:57.093Z,67.35
2023-05-06T21:10:24.074Z,68.07
2023-05-06T21:12:51.522Z,68.39
2023-05-06T21:15:18.446Z,68.78
2023-05-06T21:17:45.556Z,68.19
2023-05-06T21:20:13.233Z,68.39
2023-05-06T21:22:40.425Z,68.86
2023-05-06T21:25:08.532Z,69.16
2023-05-06T21:27:35.757Z,69.23
2023-05-06T21:30:03.273Z,69.82
2023-05-06T21:32:33.410Z,69.73
2023-05-06T21:35:03.485Z,69.86
2023-05-06T21:37:35.779Z,69.98
2023-05-06T21:40:04.653Z,69.78
2023-05-06T21:42:34.383Z,69.90
2023-05-06T21:45:01.642Z,69.93
2023-05-06T21:47:29.549Z,69.35
2023-05-06T21:49:56.577Z,69.32
2023-05-06T21:52:23.723Z,69.91
2023-05-06T21:54:50.772Z,70.05
2023-05-06T21:57:18.869Z,70.63
2023-05-06T21:59:45.950Z,70.42
2023-05-06T22:02:12.996Z,70.57
2023-05-06T22:04:39.969Z,70.33
2023-05-06T22:07:07.317Z,71.04
2023-05-06T22:09:34.374Z,70.84
2023-05-06T22:12:04.734Z,71.37
2023-05-06T22:14:40.501Z,71.09
2023-05-06T22:17:08.380Z,71.08
2023-05-06T22:19:35.629Z,70.54
2023-05-06T22:22:03.334Z,70.68
2023-05-06T22:24:30.360Z,71.27
2023-05-06T22:26:57.567Z,71.16
2023-05-06T22:29:24.568Z,70.51
2023-05-06T22:31:51.843Z,70.46
2023-05-06T22:34:18.925Z,71.06
2023-05-06T22:36:46.030Z,70.81
2023-05-06T22:39:13.339Z,71.08
2023-05-06T22:41:40.361Z,71.41
2023-05-06T22:44:07.616Z,71.30
2023-05-06T22:46:34.580Z,71.09
2023-05-06T22:49:01.701Z,71.43
2023-05-06T22:51:29.130Z,71.04
2023-05-06T22:53:56.065Z,71.27
2023-05-06T22:56:23.083Z,71.71
2023-05-06T22:58:50.128Z,71.80
2023-05-06T23:01:17.993Z,72.08
2023-05-06T23:03:45.163Z,71.87
2023-05-06T23:06:12.188Z,71.98
2023-05-06T23:08:39.155Z,71.77
2023-05-06T23:11:06.272Z,71.43
2023-05-06T23:13:36.140Z,72.02
2023-05-06T23:16:03.950Z,71.03
2023-05-06T23:18:31.043Z,71.44
2023-05-06T23:20:58.183Z,71.87
2023-05-06T23:23:25.289Z,72.44
2023-05-06T23:25:53.395Z,71.66
2023-05-06T23:28:21.035Z,71.80
2023-05-06T23:30:48.024Z,71.99
2023-05-06T23:33:15.190Z,71.48
2023-05-06T23:35:42.608Z,71.66
2023-05-06T23:38:09.570Z,71.49
2023-05-06T23:40:36.516Z,72.05
2023-05-06T23:43:03.518Z,71.91
2023-05-06T23:45:30.535Z,72.36
2023-05-06T23:47:57.548Z,72.19
2023-05-06T23:50:24.654Z,72.43
2023-05-06T23:52:51.689Z,72.32
2023-05-06T23:55:18.867Z,72.22
2023-05-06T23:57:46.104Z,72.10
